sensor_id;sensor_type;location;lat;lon;timestamp;P1;durP1;ratioP1;P2;durP2;ratioP2
47603;SDS011;33326;51.116;6.900;2023-05-18T00:01:07;9.75;;;3.15;;
47603;SDS011;33326;51.116;6.900;2023-05-18T00:06:09;9.40;;;3.38;;
47603;SDS011;33326;51.116;6.900;2023-05-18T00:11:13;11.02;;;3.50;;
47603;SDS011;33326;51.116;6.900;2023-05-18T00:16:14;11.60;;;3.70;;
47603;SDS011;33326;51.116;6.900;2023-05-18T00:21:16;9.73;;;3.63;;
47603;SDS011;33326;51.116;6.900;2023-05-18T00:26:20;12.65;;;3.50;;
47603;SDS011;33326;51.116;6.900;2023-05-18T00:31:25;14.60;;;3.85;;
47603;SDS011;33326;51.116;6.900;2023-05-18T00:36:26;10.55;;;3.55;;
47603;SDS011;33326;51.116;6.900;2023-05-18T00:41:30;10.02;;;3.67;;
47603;SDS011;33326;51.116;6.900;2023-05-18T00:46:33;13.55;;;3.50;;
47603;SDS011;33326;51.116;6.900;2023-05-18T00:51:35;12.85;;;3.60;;
47603;SDS011;33326;51.116;6.900;2023-05-18T00:56:38;11.63;;;3.50;;
47603;SDS011;33326;51.116;6.900;2023-05-18T01:01:42;10.50;;;3.50;;
47603;SDS011;33326;51.116;6.900;2023-05-18T01:06:46;14.02;;;3.60;;
47603;SDS011;33326;51.116;6.900;2023-05-18T01:11:54;11.10;;;3.58;;
47603;SDS011;33326;51.116;6.900;2023-05-18T01:17:02;8.90;;;3.55;;
47603;SDS011;33326;51.116;6.900;2023-05-18T01:22:12;14.13;;;3.63;;
47603;SDS011;33326;51.116;6.900;2023-05-18T01:27:29;12.90;;;3.90;;
47603;SDS011;33326;51.116;6.900;2023-05-18T01:32:38;8.68;;;3.35;;
47603;SDS011;33326;51.116;6.900;2023-05-18T01:37:41;10.18;;;3.65;;
47603;SDS011;33326;51.116;6.900;2023-05-18T01:42:45;15.27;;;4.43;;
47603;SDS011;33326;51.116;6.900;2023-05-18T01:47:51;12.15;;;3.80;;
47603;SDS011;33326;51.116;6.900;2023-05-18T01:52:59;14.80;;;4.00;;
47603;SDS011;33326;51.116;6.900;2023-05-18T01:58:08;10.75;;;4.00;;
47603;SDS011;33326;51.116;6.900;2023-05-18T02:03:13;12.65;;;4.35;;
47603;SDS011;33326;51.116;6.900;2023-05-18T02:08:15;11.98;;;4.70;;
47603;SDS011;33326;51.116;6.900;2023-05-18T02:13:18;8.70;;;4.03;;
47603;SDS011;33326;51.116;6.900;2023-05-18T02:18:20;9.90;;;3.92;;
47603;SDS011;33326;51.116;6.900;2023-05-18T02:23:22;8.10;;;3.55;;
47603;SDS011;33326;51.116;6.900;2023-05-18T02:28:26;12.82;;;4.25;;
47603;SDS011;33326;51.116;6.900;2023-05-18T02:33:27;8.07;;;3.97;;
47603;SDS011;33326;51.116;6.900;2023-05-18T02:38:40;11.32;;;3.80;;
47603;SDS011;33326;51.116;6.900;2023-05-18T02:43:46;13.18;;;4.07;;
47603;SDS011;33326;51.116;6.900;2023-05-18T02:48:47;12.38;;;4.25;;
47603;SDS011;33326;51.116;6.900;2023-05-18T02:53:49;9.93;;;4.45;;
47603;SDS011;33326;51.116;6.900;2023-05-18T02:58:54;9.65;;;4.35;;
47603;SDS011;33326;51.116;6.900;2023-05-18T03:04:07;11.45;;;4.20;;
47603;SDS011;33326;51.116;6.900;2023-05-18T03:09:14;10.50;;;4.35;;
47603;SDS011;33326;51.116;6.900;2023-05-18T03:14:20;12.10;;;4.22;;
47603;SDS011;33326;51.116;6.900;2023-05-18T03:19:22;10.30;;;4.50;;
47603;SDS011;33326;51.116;6.900;2023-05-18T03:24:24;12.40;;;4.75;;
47603;SDS011;33326;51.116;6.900;2023-05-18T03:29:31;9.70;;;4.45;;
47603;SDS011;33326;51.116;6.900;2023-05-18T03:34:36;14.77;;;5.05;;
47603;SDS011;33326;51.116;6.900;2023-05-18T03:39:38;11.13;;;4.82;;
47603;SDS011;33326;51.116;6.900;2023-05-18T03:44:42;15.65;;;4.70;;
47603;SDS011;33326;51.116;6.900;2023-05-18T03:49:44;13.45;;;5.18;;
47603;SDS011;33326;51.116;6.900;2023-05-18T03:54:46;13.50;;;4.93;;
47603;SDS011;33326;51.116;6.900;2023-05-18T03:59:49;10.80;;;4.88;;
47603;SDS011;33326;51.116;6.900;2023-05-18T04:04:51;18.10;;;5.05;;
47603;SDS011;33326;51.116;6.900;2023-05-18T04:09:54;17.92;;;4.90;;
47603;SDS011;33326;51.116;6.900;2023-05-18T04:14:58;11.50;;;5.22;;
47603;SDS011;33326;51.116;6.900;2023-05-18T04:19:59;9.25;;;4.53;;
47603;SDS011;33326;51.116;6.900;2023-05-18T04:25:05;11.48;;;5.30;;
47603;SDS011;33326;51.116;6.900;2023-05-18T04:30:11;13.35;;;5.28;;
47603;SDS011;33326;51.116;6.900;2023-05-18T04:35:15;11.52;;;4.78;;
47603;SDS011;33326;51.116;6.900;2023-05-18T04:40:18;18.00;;;5.18;;
47603;SDS011;33326;51.116;6.900;2023-05-18T04:45:23;12.63;;;5.00;;
47603;SDS011;33326;51.116;6.900;2023-05-18T04:50:25;14.63;;;4.47;;
47603;SDS011;33326;51.116;6.900;2023-05-18T04:55:27;12.50;;;4.97;;
47603;SDS011;33326;51.116;6.900;2023-05-18T05:00:34;9.93;;;4.47;;
47603;SDS011;33326;51.116;6.900;2023-05-18T05:05:36;11.82;;;4.95;;
47603;SDS011;33326;51.116;6.900;2023-05-18T05:10:38;13.73;;;4.85;;
47603;SDS011;33326;51.116;6.900;2023-05-18T05:15:41;14.68;;;5.18;;
47603;SDS011;33326;51.116;6.900;2023-05-18T05:20:43;12.20;;;4.63;;
47603;SDS011;33326;51.116;6.900;2023-05-18T05:25:45;13.20;;;5.10;;
47603;SDS011;33326;51.116;6.900;2023-05-18T05:30:48;11.50;;;4.65;;
47603;SDS011;33326;51.116;6.900;2023-05-18T05:35:50;14.48;;;4.90;;
47603;SDS011;33326;51.116;6.900;2023-05-18T05:40:52;15.10;;;5.03;;
47603;SDS011;33326;51.116;6.900;2023-05-18T05:45:55;14.48;;;4.50;;
47603;SDS011;33326;51.116;6.900;2023-05-18T05:50:58;15.63;;;4.93;;
47603;SDS011;33326;51.116;6.900;2023-05-18T05:56:02;13.90;;;4.03;;
47603;SDS011;33326;51.116;6.900;2023-05-18T06:01:08;12.63;;;4.25;;
47603;SDS011;33326;51.116;6.900;2023-05-18T06:06:10;13.93;;;4.18;;
47603;SDS011;33326;51.116;6.900;2023-05-18T06:11:13;13.65;;;4.05;;
47603;SDS011;33326;51.116;6.900;2023-05-18T06:16:16;12.82;;;4.05;;
47603;SDS011;33326;51.116;6.900;2023-05-18T06:21:18;13.63;;;3.95;;
47603;SDS011;33326;51.116;6.900;2023-05-18T06:26:20;12.45;;;3.63;;
47603;SDS011;33326;51.116;6.900;2023-05-18T06:31:43;11.40;;;3.92;;
47603;SDS011;33326;51.116;6.900;2023-05-18T06:36:51;12.50;;;3.90;;
47603;SDS011;33326;51.116;6.900;2023-05-18T06:41:53;12.38;;;4.10;;
47603;SDS011;33326;51.116;6.900;2023-05-18T06:46:59;15.10;;;4.13;;
47603;SDS011;33326;51.116;6.900;2023-05-18T06:52:04;9.75;;;3.70;;
47603;SDS011;33326;51.116;6.900;2023-05-18T06:57:08;13.15;;;3.70;;
47603;SDS011;33326;51.116;6.900;2023-05-18T07:02:11;9.00;;;3.50;;
47603;SDS011;33326;51.116;6.900;2023-05-18T07:07:13;8.75;;;3.60;;
47603;SDS011;33326;51.116;6.900;2023-05-18T07:12:15;10.13;;;3.75;;
47603;SDS011;33326;51.116;6.900;2023-05-18T07:17:18;12.13;;;3.85;;
47603;SDS011;33326;51.116;6.900;2023-05-18T07:22:21;7.22;;;3.58;;
47603;SDS011;33326;51.116;6.900;2023-05-18T07:27:23;10.32;;;3.13;;
47603;SDS011;33326;51.116;6.900;2023-05-18T07:32:26;10.98;;;3.53;;
47603;SDS011;33326;51.116;6.900;2023-05-18T07:37:28;9.13;;;2.97;;
47603;SDS011;33326;51.116;6.900;2023-05-18T07:42:30;9.65;;;2.95;;
47603;SDS011;33326;51.116;6.900;2023-05-18T07:47:34;8.20;;;3.28;;
47603;SDS011;33326;51.116;6.900;2023-05-18T07:52:36;10.95;;;2.90;;
47603;SDS011;33326;51.116;6.900;2023-05-18T07:57:38;7.90;;;3.00;;
47603;SDS011;33326;51.116;6.900;2023-05-18T08:02:41;12.60;;;3.20;;
47603;SDS011;33326;51.116;6.900;2023-05-18T08:07:44;10.25;;;2.67;;
47603;SDS011;33326;51.116;6.900;2023-05-18T08:12:45;9.52;;;3.10;;
47603;SDS011;33326;51.116;6.900;2023-05-18T08:17:48;9.00;;;2.88;;
47603;SDS011;33326;51.116;6.900;2023-05-18T08:22:51;12.93;;;3.28;;
47603;SDS011;33326;51.116;6.900;2023-05-18T08:27:53;12.25;;;3.10;;
47603;SDS011;33326;51.116;6.900;2023-05-18T08:32:56;11.18;;;2.88;;
47603;SDS011;33326;51.116;6.900;2023-05-18T08:37:58;13.73;;;3.70;;
47603;SDS011;33326;51.116;6.900;2023-05-18T08:43:01;9.70;;;2.63;;
47603;SDS011;33326;51.116;6.900;2023-05-18T08:48:07;11.82;;;3.00;;
47603;SDS011;33326;51.116;6.900;2023-05-18T08:53:11;8.95;;;2.80;;
47603;SDS011;33326;51.116;6.900;2023-05-18T08:58:15;13.18;;;3.75;;
47603;SDS011;33326;51.116;6.900;2023-05-18T09:03:22;8.50;;;3.30;;
47603;SDS011;33326;51.116;6.900;2023-05-18T09:08:25;8.43;;;3.20;;
47603;SDS011;33326;51.116;6.900;2023-05-18T09:13:28;10.27;;;3.20;;
47603;SDS011;33326;51.116;6.900;2023-05-18T09:18:32;9.52;;;3.38;;
47603;SDS011;33326;51.116;6.900;2023-05-18T09:23:33;10.07;;;2.95;;
47603;SDS011;33326;51.116;6.900;2023-05-18T09:28:36;9.18;;;3.00;;
47603;SDS011;33326;51.116;6.900;2023-05-18T09:33:41;7.55;;;2.67;;
47603;SDS011;33326;51.116;6.900;2023-05-18T09:38:44;13.25;;;3.20;;
47603;SDS011;33326;51.116;6.900;2023-05-18T09:43:46;7.63;;;3.20;;
47603;SDS011;33326;51.116;6.900;2023-05-18T09:48:51;9.55;;;3.35;;
47603;SDS011;33326;51.116;6.900;2023-05-18T09:53:54;9.18;;;2.85;;
47603;SDS011;33326;51.116;6.900;2023-05-18T09:58:58;9.10;;;2.80;;
47603;SDS011;33326;51.116;6.900;2023-05-18T10:04:10;10.82;;;3.20;;
47603;SDS011;33326;51.116;6.900;2023-05-18T10:09:13;9.43;;;3.17;;
47603;SDS011;33326;51.116;6.900;2023-05-18T10:14:15;14.73;;;3.40;;
47603;SDS011;33326;51.116;6.900;2023-05-18T10:19:19;6.97;;;3.22;;
47603;SDS011;33326;51.116;6.900;2023-05-18T10:24:22;7.20;;;2.90;;
47603;SDS011;33326;51.116;6.900;2023-05-18T10:29:25;10.05;;;3.03;;
47603;SDS011;33326;51.116;6.900;2023-05-18T10:34:29;10.68;;;3.10;;
47603;SDS011;33326;51.116;6.900;2023-05-18T10:39:32;11.43;;;3.50;;
47603;SDS011;33326;51.116;6.900;2023-05-18T10:44:37;10.27;;;3.28;;
47603;SDS011;33326;51.116;6.900;2023-05-18T10:49:42;9.77;;;3.22;;
47603;SDS011;33326;51.116;6.900;2023-05-18T10:54:47;11.63;;;3.30;;
47603;SDS011;33326;51.116;6.900;2023-05-18T10:59:49;12.52;;;3.13;;
47603;SDS011;33326;51.116;6.900;2023-05-18T11:04:52;10.70;;;3.22;;
47603;SDS011;33326;51.116;6.900;2023-05-18T11:09:56;14.48;;;3.67;;
47603;SDS011;33326;51.116;6.900;2023-05-18T11:15:01;12.15;;;3.42;;
47603;SDS011;33326;51.116;6.900;2023-05-18T11:20:12;8.15;;;3.38;;
47603;SDS011;33326;51.116;6.900;2023-05-18T11:25:39;10.07;;;3.03;;
47603;SDS011;33326;51.116;6.900;2023-05-18T11:30:44;8.25;;;3.03;;
47603;SDS011;33326;51.116;6.900;2023-05-18T11:35:54;10.48;;;3.42;;
47603;SDS011;33326;51.116;6.900;2023-05-18T11:40:58;11.43;;;3.38;;
47603;SDS011;33326;51.116;6.900;2023-05-18T11:46:00;13.85;;;3.35;;
47603;SDS011;33326;51.116;6.900;2023-05-18T11:51:03;7.82;;;3.00;;
47603;SDS011;33326;51.116;6.900;2023-05-18T11:56:09;10.40;;;3.42;;
47603;SDS011;33326;51.116;6.900;2023-05-18T12:01:12;12.10;;;3.35;;
47603;SDS011;33326;51.116;6.900;2023-05-18T12:06:16;8.52;;;3.22;;
47603;SDS011;33326;51.116;6.900;2023-05-18T12:11:20;9.15;;;3.28;;
47603;SDS011;33326;51.116;6.900;2023-05-18T12:16:22;7.93;;;2.88;;
47603;SDS011;33326;51.116;6.900;2023-05-18T12:21:26;8.20;;;2.70;;
47603;SDS011;33326;51.116;6.900;2023-05-18T12:26:28;9.95;;;3.70;;
47603;SDS011;33326;51.116;6.900;2023-05-18T12:31:30;9.57;;;3.13;;
47603;SDS011;33326;51.116;6.900;2023-05-18T12:36:34;7.78;;;3.20;;
47603;SDS011;33326;51.116;6.900;2023-05-18T12:41:42;12.50;;;3.13;;
47603;SDS011;33326;51.116;6.900;2023-05-18T12:46:44;7.68;;;2.95;;
47603;SDS011;33326;51.116;6.900;2023-05-18T12:51:48;10.80;;;3.28;;
47603;SDS011;33326;51.116;6.900;2023-05-18T12:56:54;7.97;;;2.97;;
47603;SDS011;33326;51.116;6.900;2023-05-18T13:01:59;9.35;;;3.00;;
47603;SDS011;33326;51.116;6.900;2023-05-18T13:07:03;7.72;;;2.80;;
47603;SDS011;33326;51.116;6.900;2023-05-18T13:12:05;9.07;;;3.08;;
47603;SDS011;33326;51.116;6.900;2023-05-18T13:17:07;11.63;;;3.00;;
47603;SDS011;33326;51.116;6.900;2023-05-18T13:22:12;10.77;;;2.95;;
47603;SDS011;33326;51.116;6.900;2023-05-18T13:27:16;6.72;;;2.95;;
47603;SDS011;33326;51.116;6.900;2023-05-18T13:32:17;7.18;;;2.97;;
47603;SDS011;33326;51.116;6.900;2023-05-18T13:37:20;7.53;;;2.67;;
47603;SDS011;33326;51.116;6.900;2023-05-18T13:42:22;7.88;;;2.90;;
47603;SDS011;33326;51.116;6.900;2023-05-18T13:47:24;7.47;;;2.80;;
47603;SDS011;33326;51.116;6.900;2023-05-18T13:52:27;8.25;;;2.65;;
47603;SDS011;33326;51.116;6.900;2023-05-18T13:57:29;8.50;;;2.67;;
47603;SDS011;33326;51.116;6.900;2023-05-18T14:02:32;7.35;;;2.70;;
47603;SDS011;33326;51.116;6.900;2023-05-18T14:07:35;10.15;;;2.97;;
47603;SDS011;33326;51.116;6.900;2023-05-18T14:12:37;7.65;;;3.20;;
47603;SDS011;33326;51.116;6.900;2023-05-18T14:17:41;7.38;;;2.65;;
47603;SDS011;33326;51.116;6.900;2023-05-18T14:22:45;6.53;;;2.80;;
47603;SDS011;33326;51.116;6.900;2023-05-18T14:27:46;10.52;;;2.88;;
47603;SDS011;33326;51.116;6.900;2023-05-18T14:32:48;11.82;;;3.28;;
47603;SDS011;33326;51.116;6.900;2023-05-18T14:37:51;6.55;;;2.60;;
47603;SDS011;33326;51.116;6.900;2023-05-18T14:42:53;9.40;;;5.38;;
47603;SDS011;33326;51.116;6.900;2023-05-18T14:47:55;6.78;;;2.67;;
47603;SDS011;33326;51.116;6.900;2023-05-18T14:52:58;7.50;;;2.80;;
47603;SDS011;33326;51.116;6.900;2023-05-18T14:58:00;6.13;;;2.75;;
47603;SDS011;33326;51.116;6.900;2023-05-18T15:03:04;6.75;;;2.70;;
47603;SDS011;33326;51.116;6.900;2023-05-18T15:08:07;8.43;;;2.85;;
47603;SDS011;33326;51.116;6.900;2023-05-18T15:13:09;11.32;;;2.97;;
47603;SDS011;33326;51.116;6.900;2023-05-18T15:18:11;10.45;;;3.00;;
47603;SDS011;33326;51.116;6.900;2023-05-18T15:23:14;8.98;;;2.78;;
47603;SDS011;33326;51.116;6.900;2023-05-18T15:28:16;9.05;;;2.65;;
47603;SDS011;33326;51.116;6.900;2023-05-18T15:33:18;6.70;;;2.90;;
47603;SDS011;33326;51.116;6.900;2023-05-18T15:38:21;8.88;;;2.67;;
47603;SDS011;33326;51.116;6.900;2023-05-18T15:43:23;6.80;;;2.55;;
47603;SDS011;33326;51.116;6.900;2023-05-18T15:48:25;7.75;;;2.70;;
47603;SDS011;33326;51.116;6.900;2023-05-18T15:53:30;7.32;;;2.80;;
47603;SDS011;33326;51.116;6.900;2023-05-18T15:58:31;7.10;;;2.60;;
47603;SDS011;33326;51.116;6.900;2023-05-18T16:03:33;7.20;;;2.35;;
47603;SDS011;33326;51.116;6.900;2023-05-18T16:08:36;8.20;;;2.30;;
47603;SDS011;33326;51.116;6.900;2023-05-18T16:13:38;10.23;;;3.00;;
47603;SDS011;33326;51.116;6.900;2023-05-18T16:18:40;10.43;;;3.10;;
47603;SDS011;33326;51.116;6.900;2023-05-18T16:23:43;6.60;;;2.50;;
47603;SDS011;33326;51.116;6.900;2023-05-18T16:28:46;9.30;;;2.80;;
47603;SDS011;33326;51.116;6.900;2023-05-18T16:33:48;7.65;;;2.60;;
47603;SDS011;33326;51.116;6.900;2023-05-18T16:38:51;8.88;;;2.70;;
47603;SDS011;33326;51.116;6.900;2023-05-18T16:43:53;9.55;;;2.58;;
47603;SDS011;33326;51.116;6.900;2023-05-18T16:48:54;9.65;;;2.72;;
47603;SDS011;33326;51.116;6.900;2023-05-18T16:53:58;7.30;;;2.40;;
47603;SDS011;33326;51.116;6.900;2023-05-18T16:59:00;7.95;;;2.50;;
47603;SDS011;33326;51.116;6.900;2023-05-18T17:04:02;8.55;;;2.55;;
47603;SDS011;33326;51.116;6.900;2023-05-18T17:09:05;9.68;;;2.83;;
47603;SDS011;33326;51.116;6.900;2023-05-18T17:14:07;11.00;;;2.67;;
47603;SDS011;33326;51.116;6.900;2023-05-18T17:19:09;9.00;;;2.83;;
47603;SDS011;33326;51.116;6.900;2023-05-18T17:24:12;8.02;;;2.63;;
47603;SDS011;33326;51.116;6.900;2023-05-18T17:29:14;11.85;;;3.13;;
47603;SDS011;33326;51.116;6.900;2023-05-18T17:34:16;8.23;;;2.58;;
47603;SDS011;33326;51.116;6.900;2023-05-18T17:39:19;9.15;;;2.50;;
47603;SDS011;33326;51.116;6.900;2023-05-18T17:44:21;8.75;;;2.70;;
47603;SDS011;33326;51.116;6.900;2023-05-18T17:49:23;8.40;;;2.70;;
47603;SDS011;33326;51.116;6.900;2023-05-18T17:54:26;9.77;;;2.83;;
47603;SDS011;33326;51.116;6.900;2023-05-18T17:59:28;9.25;;;2.38;;
47603;SDS011;33326;51.116;6.900;2023-05-18T18:04:30;5.18;;;2.15;;
47603;SDS011;33326;51.116;6.900;2023-05-18T18:09:33;7.10;;;2.63;;
47603;SDS011;33326;51.116;6.900;2023-05-18T18:14:36;9.73;;;2.55;;
47603;SDS011;33326;51.116;6.900;2023-05-18T18:19:38;5.40;;;2.25;;
47603;SDS011;33326;51.116;6.900;2023-05-18T18:24:41;6.60;;;2.03;;
47603;SDS011;33326;51.116;6.900;2023-05-18T18:29:43;9.98;;;2.67;;
47603;SDS011;33326;51.116;6.900;2023-05-18T18:34:45;8.85;;;2.88;;
47603;SDS011;33326;51.116;6.900;2023-05-18T18:39:48;7.07;;;2.67;;
47603;SDS011;33326;51.116;6.900;2023-05-18T18:44:50;7.40;;;2.35;;
47603;SDS011;33326;51.116;6.900;2023-05-18T18:49:55;10.85;;;2.65;;
47603;SDS011;33326;51.116;6.900;2023-05-18T18:54:58;7.07;;;2.42;;
47603;SDS011;33326;51.116;6.900;2023-05-18T19:00:00;9.18;;;2.80;;
47603;SDS011;33326;51.116;6.900;2023-05-18T19:05:04;7.70;;;2.90;;
47603;SDS011;33326;51.116;6.900;2023-05-18T19:10:08;8.75;;;2.50;;
47603;SDS011;33326;51.116;6.900;2023-05-18T19:15:10;8.98;;;2.67;;
47603;SDS011;33326;51.116;6.900;2023-05-18T19:20:13;8.32;;;3.15;;
47603;SDS011;33326;51.116;6.900;2023-05-18T19:25:16;9.18;;;2.85;;
47603;SDS011;33326;51.116;6.900;2023-05-18T19:30:18;7.68;;;2.83;;
47603;SDS011;33326;51.116;6.900;2023-05-18T19:35:21;9.07;;;3.28;;
47603;SDS011;33326;51.116;6.900;2023-05-18T19:40:24;11.70;;;3.10;;
47603;SDS011;33326;51.116;6.900;2023-05-18T19:45:27;8.48;;;2.83;;
47603;SDS011;33326;51.116;6.900;2023-05-18T19:50:29;11.20;;;3.15;;
47603;SDS011;33326;51.116;6.900;2023-05-18T19:55:33;11.85;;;3.42;;
47603;SDS011;33326;51.116;6.900;2023-05-18T20:00:35;9.35;;;3.20;;
47603;SDS011;33326;51.116;6.900;2023-05-18T20:05:37;6.47;;;2.85;;
47603;SDS011;33326;51.116;6.900;2023-05-18T20:10:41;8.60;;;3.05;;
47603;SDS011;33326;51.116;6.900;2023-05-18T20:15:43;11.43;;;3.28;;
47603;SDS011;33326;51.116;6.900;2023-05-18T20:20:46;7.18;;;2.67;;
47603;SDS011;33326;51.116;6.900;2023-05-18T20:25:50;11.13;;;3.60;;
47603;SDS011;33326;51.116;6.900;2023-05-18T20:30:52;11.57;;;3.08;;
47603;SDS011;33326;51.116;6.900;2023-05-18T20:35:53;10.20;;;3.10;;
47603;SDS011;33326;51.116;6.900;2023-05-18T20:40:57;13.27;;;3.90;;
47603;SDS011;33326;51.116;6.900;2023-05-18T20:46:00;10.93;;;3.88;;
47603;SDS011;33326;51.116;6.900;2023-05-18T20:51:03;7.82;;;3.05;;
47603;SDS011;33326;51.116;6.900;2023-05-18T20:56:06;9.80;;;3.35;;
47603;SDS011;33326;51.116;6.900;2023-05-18T21:01:09;7.75;;;2.90;;
47603;SDS011;33326;51.116;6.900;2023-05-18T21:06:10;10.02;;;3.00;;
47603;SDS011;33326;51.116;6.900;2023-05-18T21:11:14;9.55;;;3.42;;
47603;SDS011;33326;51.116;6.900;2023-05-18T21:16:16;6.57;;;2.97;;
47603;SDS011;33326;51.116;6.900;2023-05-18T21:21:18;8.60;;;3.00;;
47603;SDS011;33326;51.116;6.900;2023-05-18T21:26:22;10.77;;;3.83;;
47603;SDS011;33326;51.116;6.900;2023-05-18T21:31:24;8.35;;;3.10;;
47603;SDS011;33326;51.116;6.900;2023-05-18T21:36:26;8.48;;;3.50;;
47603;SDS011;33326;51.116;6.900;2023-05-18T21:41:34;7.60;;;3.38;;
47603;SDS011;33326;51.116;6.900;2023-05-18T21:46:38;9.38;;;3.00;;
47603;SDS011;33326;51.116;6.900;2023-05-18T21:51:40;9.52;;;3.53;;
47603;SDS011;33326;51.116;6.900;2023-05-18T21:56:43;8.60;;;3.42;;
47603;SDS011;33326;51.116;6.900;2023-05-18T22:01:45;13.07;;;3.35;;
47603;SDS011;33326;51.116;6.900;2023-05-18T22:06:47;8.30;;;3.00;;
47603;SDS011;33326;51.116;6.900;2023-05-18T22:11:52;10.02;;;3.47;;
47603;SDS011;33326;51.116;6.900;2023-05-18T22:16:54;8.02;;;3.22;;
47603;SDS011;33326;51.116;6.900;2023-05-18T22:21:56;10.32;;;3.05;;
47603;SDS011;33326;51.116;6.900;2023-05-18T22:27:01;9.57;;;3.28;;
47603;SDS011;33326;51.116;6.900;2023-05-18T22:32:04;9.77;;;3.78;;
47603;SDS011;33326;51.116;6.900;2023-05-18T22:37:07;8.77;;;3.63;;
47603;SDS011;33326;51.116;6.900;2023-05-18T22:42:10;11.77;;;3.80;;
47603;SDS011;33326;51.116;6.900;2023-05-18T22:47:27;7.32;;;3.40;;
47603;SDS011;33326;51.116;6.900;2023-05-18T22:52:29;7.88;;;3.40;;
47603;SDS011;33326;51.116;6.900;2023-05-18T22:57:33;9.27;;;3.72;;
47603;SDS011;33326;51.116;6.900;2023-05-18T23:02:35;11.05;;;3.47;;
47603;SDS011;33326;51.116;6.900;2023-05-18T23:07:36;9.50;;;3.55;;
47603;SDS011;33326;51.116;6.900;2023-05-18T23:12:42;9.48;;;3.40;;
47603;SDS011;33326;51.116;6.900;2023-05-18T23:17:47;6.50;;;2.97;;
47603;SDS011;33326;51.116;6.900;2023-05-18T23:22:49;8.02;;;3.70;;
47603;SDS011;33326;51.116;6.900;2023-05-18T23:27:52;10.75;;;3.60;;
47603;SDS011;33326;51.116;6.900;2023-05-18T23:32:54;10.00;;;3.80;;
47603;SDS011;33326;51.116;6.900;2023-05-18T23:37:56;7.65;;;3.58;;
47603;SDS011;33326;51.116;6.900;2023-05-18T23:43:05;11.85;;;3.45;;
47603;SDS011;33326;51.116;6.900;2023-05-18T23:48:07;7.82;;;4.13;;
47603;SDS011;33326;51.116;6.900;2023-05-18T23:53:10;8.32;;;3.78;;
47603;SDS011;33326;51.116;6.900;2023-05-18T23:58:16;9.07;;;3.85;;
